Airfield :
LOGIN :

Register | Disclaimer

   EN    FR    IT 

 










Legend :    VFR   Marginal VFR   IFR   Intensive IFR   Very Intensive IFR
Visi :
Ceiling :
>= 8 km
>= 3000ft
5 to 8 km
1000 to 3000 ft
1500m to 5 km
500 to 1000 ft
800 to 1500m
200 to 500 ft
< 800m
< 200 ft
Symbols :   Thunderstorms  Fog  Heavy snow  Heavy precipitations  Wind > 20 kt
SIGMETs :     Misc.  Thunderstorms  Icing  Turbulence  Mountain Waves  Volcanic Ashes







- Airport Elevation : 121 ft
- IATA code : HUY
- Download approach charts


EGNJ - Humberside

CURRENT METAR :
  • 181120Z 25011KT 230V300 9999 FEW020 BKN045 21/10 Q1008

EXPIRED METARs :
  • 181050Z 28009KT 250V310 9999 SCT022 20/11 Q1008
  • 181020Z 26012KT 9999 SCT022 20/11 Q1008
  • 180950Z 26010KT 9999 SCT022 19/11 Q1008
  • 180920Z 28010KT 240V300 9999 FEW022 19/12 Q1008
  • 180850Z 27009KT 230V300 9999 FEW015 18/12 Q1007

TAF TAF EGNJ
Valid from the 18 at 12:00 until the 18 at 21:00 UTC


181056Z 1812/1821 25009KT 9999 SCT030
ATIS : +44 1652 682 020
No reported NOTAMs for that airfield.



MET'MAP, your aeronautical weather chart ! - Copyright ORBIFLY December 2007 - Disclaimer

ORBIFLY MET'MAP TEAM :

Programming & Development : Alexandra Zaïnal
Concept & Development : Baudouin d'Aumeries
Co-Development & Prog : Marc-Olivier Méhu
Technical & hardware support : Manuel Goepfert

Contact : metmap@orbifly.com




SOURCES & CREDITS :

   NOAA